sensor_id;sensor_type;location;lat;lon;timestamp;P1;durP1;ratioP1;P2;durP2;ratioP2
10701;SDS011;5402;50.004;8.246;2022-08-21T00:01:13;7.50;;;2.80;;
10701;SDS011;5402;50.004;8.246;2022-08-21T00:03:42;4.97;;;2.87;;
10701;SDS011;5402;50.004;8.246;2022-08-21T00:06:15;5.87;;;2.70;;
10701;SDS011;5402;50.004;8.246;2022-08-21T00:08:42;5.57;;;2.73;;
10701;SDS011;5402;50.004;8.246;2022-08-21T00:11:13;4.70;;;2.70;;
10701;SDS011;5402;50.004;8.246;2022-08-21T00:13:40;4.50;;;2.97;;
10701;SDS011;5402;50.004;8.246;2022-08-21T00:16:07;6.17;;;2.87;;
10701;SDS011;5402;50.004;8.246;2022-08-21T00:18:33;3.97;;;2.80;;
10701;SDS011;5402;50.004;8.246;2022-08-21T00:21:00;3.97;;;2.50;;
10701;SDS011;5402;50.004;8.246;2022-08-21T00:23:28;4.87;;;2.83;;
10701;SDS011;5402;50.004;8.246;2022-08-21T00:25:56;4.97;;;2.87;;
10701;SDS011;5402;50.004;8.246;2022-08-21T00:28:22;4.77;;;2.73;;
10701;SDS011;5402;50.004;8.246;2022-08-21T00:30:49;4.13;;;2.83;;
10701;SDS011;5402;50.004;8.246;2022-08-21T00:33:16;4.00;;;2.60;;
10701;SDS011;5402;50.004;8.246;2022-08-21T00:35:43;4.63;;;2.60;;
10701;SDS011;5402;50.004;8.246;2022-08-21T00:38:10;3.77;;;2.37;;
10701;SDS011;5402;50.004;8.246;2022-08-21T00:40:39;3.47;;;2.70;;
10701;SDS011;5402;50.004;8.246;2022-08-21T00:43:12;4.87;;;2.70;;
10701;SDS011;5402;50.004;8.246;2022-08-21T00:45:42;4.30;;;2.50;;
10701;SDS011;5402;50.004;8.246;2022-08-21T00:48:09;4.93;;;2.60;;
10701;SDS011;5402;50.004;8.246;2022-08-21T00:50:38;3.67;;;2.00;;
10701;SDS011;5402;50.004;8.246;2022-08-21T00:53:09;4.70;;;2.50;;
10701;SDS011;5402;50.004;8.246;2022-08-21T00:55:43;3.10;;;2.10;;
10701;SDS011;5402;50.004;8.246;2022-08-21T00:58:11;4.53;;;2.90;;
10701;SDS011;5402;50.004;8.246;2022-08-21T01:00:40;4.63;;;2.67;;
10701;SDS011;5402;50.004;8.246;2022-08-21T01:03:09;4.27;;;2.63;;
10701;SDS011;5402;50.004;8.246;2022-08-21T01:05:39;3.70;;;2.17;;
10701;SDS011;5402;50.004;8.246;2022-08-21T01:08:06;4.70;;;2.40;;
10701;SDS011;5402;50.004;8.246;2022-08-21T01:10:33;2.80;;;2.50;;
10701;SDS011;5402;50.004;8.246;2022-08-21T01:13:06;3.83;;;2.30;;
10701;SDS011;5402;50.004;8.246;2022-08-21T01:15:35;4.30;;;2.30;;
10701;SDS011;5402;50.004;8.246;2022-08-21T01:18:03;5.03;;;2.43;;
10701;SDS011;5402;50.004;8.246;2022-08-21T01:20:32;5.90;;;2.50;;
10701;SDS011;5402;50.004;8.246;2022-08-21T01:23:00;4.63;;;2.63;;
10701;SDS011;5402;50.004;8.246;2022-08-21T01:25:28;3.70;;;2.33;;
10701;SDS011;5402;50.004;8.246;2022-08-21T01:27:55;4.33;;;2.17;;
10701;SDS011;5402;50.004;8.246;2022-08-21T01:30:26;5.07;;;2.40;;
10701;SDS011;5402;50.004;8.246;2022-08-21T01:32:53;3.00;;;2.10;;
10701;SDS011;5402;50.004;8.246;2022-08-21T01:35:21;4.07;;;2.20;;
10701;SDS011;5402;50.004;8.246;2022-08-21T01:37:48;5.17;;;2.23;;
10701;SDS011;5402;50.004;8.246;2022-08-21T01:40:17;5.50;;;2.30;;
10701;SDS011;5402;50.004;8.246;2022-08-21T01:42:44;3.73;;;2.27;;
10701;SDS011;5402;50.004;8.246;2022-08-21T01:45:13;5.50;;;2.27;;
10701;SDS011;5402;50.004;8.246;2022-08-21T01:47:41;4.17;;;3.07;;
10701;SDS011;5402;50.004;8.246;2022-08-21T01:50:11;4.70;;;2.27;;
10701;SDS011;5402;50.004;8.246;2022-08-21T01:52:39;6.53;;;2.37;;
10701;SDS011;5402;50.004;8.246;2022-08-21T01:55:07;5.30;;;2.70;;
10701;SDS011;5402;50.004;8.246;2022-08-21T01:57:36;4.30;;;2.40;;
10701;SDS011;5402;50.004;8.246;2022-08-21T02:00:04;5.57;;;2.80;;
10701;SDS011;5402;50.004;8.246;2022-08-21T02:02:34;4.83;;;2.70;;
10701;SDS011;5402;50.004;8.246;2022-08-21T02:05:02;5.43;;;2.77;;
10701;SDS011;5402;50.004;8.246;2022-08-21T02:07:35;4.00;;;2.27;;
10701;SDS011;5402;50.004;8.246;2022-08-21T02:10:07;4.23;;;2.60;;
10701;SDS011;5402;50.004;8.246;2022-08-21T02:12:36;2.93;;;2.33;;
10701;SDS011;5402;50.004;8.246;2022-08-21T02:15:04;5.73;;;2.30;;
10701;SDS011;5402;50.004;8.246;2022-08-21T02:17:39;6.27;;;2.50;;
10701;SDS011;5402;50.004;8.246;2022-08-21T02:20:08;4.03;;;2.30;;
10701;SDS011;5402;50.004;8.246;2022-08-21T02:22:38;2.80;;;2.03;;
10701;SDS011;5402;50.004;8.246;2022-08-21T02:25:05;5.13;;;2.40;;
10701;SDS011;5402;50.004;8.246;2022-08-21T02:27:38;4.33;;;2.17;;
10701;SDS011;5402;50.004;8.246;2022-08-21T02:30:07;3.40;;;2.50;;
10701;SDS011;5402;50.004;8.246;2022-08-21T02:32:35;4.97;;;2.63;;
10701;SDS011;5402;50.004;8.246;2022-08-21T02:35:02;5.17;;;2.30;;
10701;SDS011;5402;50.004;8.246;2022-08-21T02:37:29;3.57;;;2.30;;
10701;SDS011;5402;50.004;8.246;2022-08-21T02:39:56;4.80;;;2.73;;
10701;SDS011;5402;50.004;8.246;2022-08-21T02:42:24;5.33;;;2.80;;
10701;SDS011;5402;50.004;8.246;2022-08-21T02:44:52;3.87;;;2.43;;
10701;SDS011;5402;50.004;8.246;2022-08-21T02:47:19;5.73;;;2.70;;
10701;SDS011;5402;50.004;8.246;2022-08-21T02:49:46;5.43;;;2.13;;
10701;SDS011;5402;50.004;8.246;2022-08-21T02:52:12;4.80;;;2.80;;
10701;SDS011;5402;50.004;8.246;2022-08-21T02:54:39;4.57;;;2.47;;
10701;SDS011;5402;50.004;8.246;2022-08-21T02:57:06;2.60;;;2.20;;
10701;SDS011;5402;50.004;8.246;2022-08-21T02:59:33;5.97;;;2.63;;
10701;SDS011;5402;50.004;8.246;2022-08-21T03:02:01;3.37;;;2.50;;
10701;SDS011;5402;50.004;8.246;2022-08-21T03:04:27;4.27;;;2.60;;
10701;SDS011;5402;50.004;8.246;2022-08-21T03:06:54;9.13;;;3.13;;
10701;SDS011;5402;50.004;8.246;2022-08-21T03:09:21;4.40;;;2.40;;
10701;SDS011;5402;50.004;8.246;2022-08-21T03:11:49;3.93;;;2.47;;
10701;SDS011;5402;50.004;8.246;2022-08-21T03:14:17;2.83;;;2.33;;
10701;SDS011;5402;50.004;8.246;2022-08-21T03:16:44;2.47;;;2.20;;
10701;SDS011;5402;50.004;8.246;2022-08-21T03:19:12;5.17;;;2.37;;
10701;SDS011;5402;50.004;8.246;2022-08-21T03:21:39;4.87;;;2.07;;
10701;SDS011;5402;50.004;8.246;2022-08-21T03:24:06;3.40;;;2.17;;
10701;SDS011;5402;50.004;8.246;2022-08-21T03:26:34;4.73;;;2.40;;
10701;SDS011;5402;50.004;8.246;2022-08-21T03:29:01;4.43;;;2.20;;
10701;SDS011;5402;50.004;8.246;2022-08-21T03:31:32;3.63;;;2.30;;
10701;SDS011;5402;50.004;8.246;2022-08-21T03:33:59;3.77;;;2.37;;
10701;SDS011;5402;50.004;8.246;2022-08-21T03:36:27;3.00;;;2.30;;
10701;SDS011;5402;50.004;8.246;2022-08-21T03:38:54;5.13;;;2.50;;
10701;SDS011;5402;50.004;8.246;2022-08-21T03:41:21;3.47;;;2.30;;
10701;SDS011;5402;50.004;8.246;2022-08-21T03:43:48;4.57;;;2.53;;
10701;SDS011;5402;50.004;8.246;2022-08-21T03:46:15;5.20;;;2.70;;
10701;SDS011;5402;50.004;8.246;2022-08-21T03:48:42;4.90;;;2.67;;
10701;SDS011;5402;50.004;8.246;2022-08-21T03:51:09;5.13;;;2.53;;
10701;SDS011;5402;50.004;8.246;2022-08-21T03:53:37;4.47;;;2.40;;
10701;SDS011;5402;50.004;8.246;2022-08-21T03:56:09;3.80;;;2.40;;
10701;SDS011;5402;50.004;8.246;2022-08-21T03:58:36;3.53;;;2.70;;
10701;SDS011;5402;50.004;8.246;2022-08-21T04:01:04;3.57;;;2.80;;
10701;SDS011;5402;50.004;8.246;2022-08-21T04:03:33;5.60;;;2.77;;
10701;SDS011;5402;50.004;8.246;2022-08-21T04:06:02;5.27;;;2.87;;
10701;SDS011;5402;50.004;8.246;2022-08-21T04:08:29;4.57;;;2.80;;
10701;SDS011;5402;50.004;8.246;2022-08-21T04:10:58;4.13;;;2.93;;
10701;SDS011;5402;50.004;8.246;2022-08-21T04:13:25;2.90;;;2.40;;
10701;SDS011;5402;50.004;8.246;2022-08-21T04:15:53;6.10;;;2.57;;
10701;SDS011;5402;50.004;8.246;2022-08-21T04:18:20;5.07;;;2.67;;
10701;SDS011;5402;50.004;8.246;2022-08-21T04:20:47;4.97;;;2.70;;
10701;SDS011;5402;50.004;8.246;2022-08-21T04:23:16;6.73;;;3.00;;
10701;SDS011;5402;50.004;8.246;2022-08-21T04:25:43;5.57;;;2.70;;
10701;SDS011;5402;50.004;8.246;2022-08-21T04:28:11;4.80;;;2.77;;
10701;SDS011;5402;50.004;8.246;2022-08-21T04:30:38;7.77;;;2.97;;
10701;SDS011;5402;50.004;8.246;2022-08-21T04:33:05;5.13;;;2.93;;
10701;SDS011;5402;50.004;8.246;2022-08-21T04:35:32;4.87;;;2.73;;
10701;SDS011;5402;50.004;8.246;2022-08-21T04:37:59;5.40;;;2.60;;
10701;SDS011;5402;50.004;8.246;2022-08-21T04:40:26;6.60;;;2.93;;
10701;SDS011;5402;50.004;8.246;2022-08-21T04:42:55;5.37;;;2.90;;
10701;SDS011;5402;50.004;8.246;2022-08-21T04:45:27;5.33;;;2.70;;
10701;SDS011;5402;50.004;8.246;2022-08-21T04:47:56;5.17;;;2.57;;
10701;SDS011;5402;50.004;8.246;2022-08-21T04:50:26;4.13;;;2.23;;
10701;SDS011;5402;50.004;8.246;2022-08-21T04:52:57;2.67;;;2.43;;
10701;SDS011;5402;50.004;8.246;2022-08-21T04:55:25;5.10;;;2.90;;
10701;SDS011;5402;50.004;8.246;2022-08-21T04:57:53;5.63;;;3.20;;
10701;SDS011;5402;50.004;8.246;2022-08-21T05:00:21;5.37;;;2.40;;
10701;SDS011;5402;50.004;8.246;2022-08-21T05:02:51;7.10;;;2.97;;
10701;SDS011;5402;50.004;8.246;2022-08-21T05:05:21;5.50;;;3.00;;
10701;SDS011;5402;50.004;8.246;2022-08-21T05:07:48;4.67;;;2.53;;
10701;SDS011;5402;50.004;8.246;2022-08-21T05:10:15;4.50;;;2.57;;
10701;SDS011;5402;50.004;8.246;2022-08-21T05:12:42;3.83;;;2.40;;
10701;SDS011;5402;50.004;8.246;2022-08-21T05:15:10;3.83;;;2.80;;
10701;SDS011;5402;50.004;8.246;2022-08-21T05:17:38;3.57;;;2.53;;
10701;SDS011;5402;50.004;8.246;2022-08-21T05:20:06;4.60;;;2.87;;
10701;SDS011;5402;50.004;8.246;2022-08-21T05:22:33;4.20;;;2.70;;
10701;SDS011;5402;50.004;8.246;2022-08-21T05:25:00;3.10;;;2.33;;
10701;SDS011;5402;50.004;8.246;2022-08-21T05:27:27;4.87;;;2.93;;
10701;SDS011;5402;50.004;8.246;2022-08-21T05:29:55;4.13;;;2.70;;
10701;SDS011;5402;50.004;8.246;2022-08-21T05:32:22;3.53;;;2.30;;
10701;SDS011;5402;50.004;8.246;2022-08-21T05:34:49;4.27;;;2.80;;
10701;SDS011;5402;50.004;8.246;2022-08-21T05:37:18;6.30;;;3.27;;
10701;SDS011;5402;50.004;8.246;2022-08-21T05:39:44;6.40;;;3.10;;
10701;SDS011;5402;50.004;8.246;2022-08-21T05:42:11;3.77;;;2.57;;
10701;SDS011;5402;50.004;8.246;2022-08-21T05:44:38;5.57;;;2.97;;
10701;SDS011;5402;50.004;8.246;2022-08-21T05:47:05;6.07;;;2.93;;
10701;SDS011;5402;50.004;8.246;2022-08-21T05:49:32;5.20;;;3.07;;
10701;SDS011;5402;50.004;8.246;2022-08-21T05:51:59;3.53;;;2.37;;
10701;SDS011;5402;50.004;8.246;2022-08-21T05:54:28;4.70;;;3.30;;
10701;SDS011;5402;50.004;8.246;2022-08-21T05:56:54;10.93;;;3.23;;
10701;SDS011;5402;50.004;8.246;2022-08-21T05:59:22;9.03;;;2.90;;
10701;SDS011;5402;50.004;8.246;2022-08-21T06:01:49;4.07;;;2.50;;
10701;SDS011;5402;50.004;8.246;2022-08-21T06:04:18;7.60;;;3.20;;
10701;SDS011;5402;50.004;8.246;2022-08-21T06:06:45;3.55;;;2.47;;
10701;SDS011;5402;50.004;8.246;2022-08-21T06:09:13;4.17;;;2.70;;
10701;SDS011;5402;50.004;8.246;2022-08-21T06:11:41;5.40;;;3.00;;
10701;SDS011;5402;50.004;8.246;2022-08-21T06:14:08;3.60;;;2.67;;
10701;SDS011;5402;50.004;8.246;2022-08-21T06:16:34;4.67;;;3.00;;
10701;SDS011;5402;50.004;8.246;2022-08-21T06:19:01;5.53;;;3.23;;
10701;SDS011;5402;50.004;8.246;2022-08-21T06:21:28;5.03;;;3.27;;
10701;SDS011;5402;50.004;8.246;2022-08-21T06:23:55;5.17;;;2.97;;
10701;SDS011;5402;50.004;8.246;2022-08-21T06:26:22;4.47;;;2.70;;
10701;SDS011;5402;50.004;8.246;2022-08-21T06:28:50;5.07;;;2.70;;
10701;SDS011;5402;50.004;8.246;2022-08-21T06:31:18;7.27;;;3.60;;
10701;SDS011;5402;50.004;8.246;2022-08-21T06:33:47;6.30;;;3.07;;
10701;SDS011;5402;50.004;8.246;2022-08-21T06:36:14;8.13;;;3.43;;
10701;SDS011;5402;50.004;8.246;2022-08-21T06:38:41;3.83;;;2.80;;
10701;SDS011;5402;50.004;8.246;2022-08-21T06:41:08;9.70;;;3.27;;
10701;SDS011;5402;50.004;8.246;2022-08-21T06:43:35;5.20;;;3.00;;
10701;SDS011;5402;50.004;8.246;2022-08-21T06:46:04;4.73;;;3.20;;
10701;SDS011;5402;50.004;8.246;2022-08-21T06:48:32;5.20;;;3.10;;
10701;SDS011;5402;50.004;8.246;2022-08-21T06:50:59;5.23;;;3.30;;
10701;SDS011;5402;50.004;8.246;2022-08-21T06:53:26;4.10;;;2.70;;
10701;SDS011;5402;50.004;8.246;2022-08-21T06:55:53;5.73;;;3.07;;
10701;SDS011;5402;50.004;8.246;2022-08-21T06:58:20;4.53;;;2.70;;
10701;SDS011;5402;50.004;8.246;2022-08-21T07:00:47;6.70;;;3.40;;
10701;SDS011;5402;50.004;8.246;2022-08-21T07:03:18;5.33;;;3.00;;
10701;SDS011;5402;50.004;8.246;2022-08-21T07:05:46;5.70;;;3.43;;
10701;SDS011;5402;50.004;8.246;2022-08-21T07:08:12;4.73;;;3.07;;
10701;SDS011;5402;50.004;8.246;2022-08-21T07:10:39;6.37;;;3.40;;
10701;SDS011;5402;50.004;8.246;2022-08-21T07:13:06;3.77;;;3.03;;
10701;SDS011;5402;50.004;8.246;2022-08-21T07:15:33;4.00;;;2.70;;
10701;SDS011;5402;50.004;8.246;2022-08-21T07:17:59;5.60;;;2.90;;
10701;SDS011;5402;50.004;8.246;2022-08-21T07:20:28;5.53;;;3.23;;
10701;SDS011;5402;50.004;8.246;2022-08-21T07:22:56;6.13;;;3.07;;
10701;SDS011;5402;50.004;8.246;2022-08-21T07:25:24;5.07;;;2.97;;
10701;SDS011;5402;50.004;8.246;2022-08-21T07:27:51;4.10;;;2.97;;
10701;SDS011;5402;50.004;8.246;2022-08-21T07:30:18;3.67;;;2.87;;
10701;SDS011;5402;50.004;8.246;2022-08-21T07:32:45;5.77;;;3.23;;
10701;SDS011;5402;50.004;8.246;2022-08-21T07:35:14;8.10;;;3.80;;
10701;SDS011;5402;50.004;8.246;2022-08-21T07:37:42;4.37;;;3.17;;
10701;SDS011;5402;50.004;8.246;2022-08-21T07:40:09;6.03;;;3.60;;
10701;SDS011;5402;50.004;8.246;2022-08-21T07:42:39;7.60;;;4.17;;
10701;SDS011;5402;50.004;8.246;2022-08-21T07:45:06;6.77;;;3.80;;
10701;SDS011;5402;50.004;8.246;2022-08-21T07:47:34;8.23;;;3.40;;
10701;SDS011;5402;50.004;8.246;2022-08-21T07:50:01;5.67;;;3.30;;
10701;SDS011;5402;50.004;8.246;2022-08-21T07:52:28;4.67;;;3.37;;
10701;SDS011;5402;50.004;8.246;2022-08-21T07:54:56;6.57;;;3.37;;
10701;SDS011;5402;50.004;8.246;2022-08-21T07:57:23;6.43;;;3.60;;
10701;SDS011;5402;50.004;8.246;2022-08-21T07:59:50;5.38;;;3.35;;
10701;SDS011;5402;50.004;8.246;2022-08-21T08:02:21;5.75;;;3.70;;
10701;SDS011;5402;50.004;8.246;2022-08-21T08:04:49;6.75;;;3.72;;
10701;SDS011;5402;50.004;8.246;2022-08-21T08:07:15;4.23;;;3.50;;
10701;SDS011;5402;50.004;8.246;2022-08-21T08:09:42;5.20;;;3.70;;
10701;SDS011;5402;50.004;8.246;2022-08-21T08:12:11;7.15;;;4.32;;
10701;SDS011;5402;50.004;8.246;2022-08-21T08:14:37;6.80;;;4.00;;
10701;SDS011;5402;50.004;8.246;2022-08-21T08:17:04;6.47;;;3.95;;
10701;SDS011;5402;50.004;8.246;2022-08-21T08:19:31;9.10;;;4.70;;
10701;SDS011;5402;50.004;8.246;2022-08-21T08:21:57;6.50;;;4.70;;
10701;SDS011;5402;50.004;8.246;2022-08-21T08:24:24;7.32;;;4.63;;
10701;SDS011;5402;50.004;8.246;2022-08-21T08:26:51;5.85;;;3.72;;
10701;SDS011;5402;50.004;8.246;2022-08-21T08:29:20;8.73;;;4.75;;
10701;SDS011;5402;50.004;8.246;2022-08-21T08:31:47;8.73;;;4.55;;
10701;SDS011;5402;50.004;8.246;2022-08-21T08:34:14;5.03;;;4.45;;
10701;SDS011;5402;50.004;8.246;2022-08-21T08:36:40;7.15;;;4.97;;
10701;SDS011;5402;50.004;8.246;2022-08-21T08:39:07;7.65;;;4.63;;
10701;SDS011;5402;50.004;8.246;2022-08-21T08:41:34;7.97;;;5.25;;
10701;SDS011;5402;50.004;8.246;2022-08-21T08:44:03;6.20;;;4.68;;
10701;SDS011;5402;50.004;8.246;2022-08-21T08:46:36;8.38;;;4.78;;
10701;SDS011;5402;50.004;8.246;2022-08-21T08:49:08;8.60;;;4.28;;
10701;SDS011;5402;50.004;8.246;2022-08-21T08:51:42;7.47;;;4.13;;
10701;SDS011;5402;50.004;8.246;2022-08-21T08:54:15;6.45;;;4.28;;
10701;SDS011;5402;50.004;8.246;2022-08-21T08:56:49;8.57;;;4.45;;
10701;SDS011;5402;50.004;8.246;2022-08-21T08:59:18;6.88;;;3.65;;
10701;SDS011;5402;50.004;8.246;2022-08-21T09:01:49;6.75;;;3.40;;
10701;SDS011;5402;50.004;8.246;2022-08-21T09:04:20;7.00;;;2.92;;
10701;SDS011;5402;50.004;8.246;2022-08-21T09:06:53;7.95;;;3.50;;
10701;SDS011;5402;50.004;8.246;2022-08-21T09:09:34;5.30;;;3.25;;
10701;SDS011;5402;50.004;8.246;2022-08-21T09:12:17;7.78;;;3.90;;
10701;SDS011;5402;50.004;8.246;2022-08-21T09:14:54;5.70;;;3.70;;
10701;SDS011;5402;50.004;8.246;2022-08-21T09:17:35;5.00;;;3.50;;
10701;SDS011;5402;50.004;8.246;2022-08-21T09:20:13;4.50;;;3.25;;
10701;SDS011;5402;50.004;8.246;2022-08-21T09:22:49;8.52;;;3.47;;
10701;SDS011;5402;50.004;8.246;2022-08-21T09:25:24;5.88;;;3.45;;
10701;SDS011;5402;50.004;8.246;2022-08-21T09:27:53;5.32;;;3.38;;
10701;SDS011;5402;50.004;8.246;2022-08-21T09:30:27;4.78;;;3.50;;
10701;SDS011;5402;50.004;8.246;2022-08-21T09:32:57;7.57;;;3.20;;
10701;SDS011;5402;50.004;8.246;2022-08-21T09:35:24;5.72;;;3.20;;
10701;SDS011;5402;50.004;8.246;2022-08-21T09:37:53;7.13;;;3.28;;
10701;SDS011;5402;50.004;8.246;2022-08-21T09:40:30;6.28;;;3.10;;
10701;SDS011;5402;50.004;8.246;2022-08-21T09:42:59;4.85;;;3.00;;
10701;SDS011;5402;50.004;8.246;2022-08-21T09:45:27;7.95;;;3.03;;
10701;SDS011;5402;50.004;8.246;2022-08-21T09:48:07;4.25;;;2.88;;
10701;SDS011;5402;50.004;8.246;2022-08-21T09:50:36;7.50;;;3.55;;
10701;SDS011;5402;50.004;8.246;2022-08-21T09:53:03;3.95;;;2.95;;
10701;SDS011;5402;50.004;8.246;2022-08-21T09:55:46;5.10;;;2.97;;
10701;SDS011;5402;50.004;8.246;2022-08-21T09:58:34;3.85;;;2.45;;
10701;SDS011;5402;50.004;8.246;2022-08-21T10:01:04;3.88;;;2.65;;
10701;SDS011;5402;50.004;8.246;2022-08-21T10:03:33;5.38;;;2.78;;
10701;SDS011;5402;50.004;8.246;2022-08-21T10:06:01;5.90;;;3.08;;
10701;SDS011;5402;50.004;8.246;2022-08-21T10:08:33;5.05;;;2.80;;
10701;SDS011;5402;50.004;8.246;2022-08-21T10:11:01;4.50;;;2.80;;
10701;SDS011;5402;50.004;8.246;2022-08-21T10:13:36;4.90;;;2.80;;
10701;SDS011;5402;50.004;8.246;2022-08-21T10:16:21;6.20;;;3.00;;
10701;SDS011;5402;50.004;8.246;2022-08-21T10:19:04;5.97;;;2.67;;
10701;SDS011;5402;50.004;8.246;2022-08-21T10:21:42;5.35;;;2.80;;
10701;SDS011;5402;50.004;8.246;2022-08-21T10:24:24;3.38;;;2.63;;
10701;SDS011;5402;50.004;8.246;2022-08-21T10:27:00;8.63;;;3.58;;
10701;SDS011;5402;50.004;8.246;2022-08-21T10:29:43;3.67;;;2.67;;
10701;SDS011;5402;50.004;8.246;2022-08-21T10:32:20;4.47;;;2.85;;
10701;SDS011;5402;50.004;8.246;2022-08-21T10:35:06;7.30;;;2.78;;
10701;SDS011;5402;50.004;8.246;2022-08-21T10:37:40;3.15;;;2.42;;
10701;SDS011;5402;50.004;8.246;2022-08-21T10:40:17;4.38;;;3.28;;
10701;SDS011;5402;50.004;8.246;2022-08-21T10:42:53;3.53;;;2.40;;
10701;SDS011;5402;50.004;8.246;2022-08-21T10:45:32;5.47;;;2.70;;
10701;SDS011;5402;50.004;8.246;2022-08-21T10:48:07;4.50;;;2.55;;
10701;SDS011;5402;50.004;8.246;2022-08-21T10:50:39;4.75;;;2.60;;
10701;SDS011;5402;50.004;8.246;2022-08-21T10:53:15;4.90;;;2.60;;
10701;SDS011;5402;50.004;8.246;2022-08-21T10:55:50;5.18;;;2.60;;
10701;SDS011;5402;50.004;8.246;2022-08-21T10:58:28;3.85;;;2.33;;
10701;SDS011;5402;50.004;8.246;2022-08-21T11:00:58;5.40;;;2.75;;
10701;SDS011;5402;50.004;8.246;2022-08-21T11:03:32;5.22;;;2.65;;
10701;SDS011;5402;50.004;8.246;2022-08-21T11:06:04;4.28;;;2.40;;
10701;SDS011;5402;50.004;8.246;2022-08-21T11:08:35;4.63;;;2.60;;
10701;SDS011;5402;50.004;8.246;2022-08-21T11:11:10;5.78;;;2.60;;
10701;SDS011;5402;50.004;8.246;2022-08-21T11:13:40;5.00;;;2.60;;
10701;SDS011;5402;50.004;8.246;2022-08-21T11:16:14;4.35;;;2.50;;
10701;SDS011;5402;50.004;8.246;2022-08-21T11:18:46;3.38;;;2.42;;
10701;SDS011;5402;50.004;8.246;2022-08-21T11:21:24;4.97;;;2.30;;
10701;SDS011;5402;50.004;8.246;2022-08-21T11:24:02;4.65;;;2.63;;
10701;SDS011;5402;50.004;8.246;2022-08-21T11:26:39;4.20;;;2.40;;
10701;SDS011;5402;50.004;8.246;2022-08-21T11:29:11;5.45;;;2.58;;
10701;SDS011;5402;50.004;8.246;2022-08-21T11:31:47;4.38;;;2.60;;
10701;SDS011;5402;50.004;8.246;2022-08-21T11:34:26;3.22;;;2.20;;
10701;SDS011;5402;50.004;8.246;2022-08-21T11:37:07;2.95;;;2.28;;
10701;SDS011;5402;50.004;8.246;2022-08-21T11:39:41;4.03;;;2.30;;
10701;SDS011;5402;50.004;8.246;2022-08-21T11:42:17;4.72;;;2.65;;
10701;SDS011;5402;50.004;8.246;2022-08-21T11:44:55;3.78;;;2.22;;
10701;SDS011;5402;50.004;8.246;2022-08-21T11:47:38;4.70;;;2.28;;
10701;SDS011;5402;50.004;8.246;2022-08-21T11:50:15;5.15;;;2.60;;
10701;SDS011;5402;50.004;8.246;2022-08-21T11:52:47;5.05;;;2.70;;
10701;SDS011;5402;50.004;8.246;2022-08-21T11:55:18;4.43;;;2.63;;
10701;SDS011;5402;50.004;8.246;2022-08-21T11:57:50;4.15;;;2.47;;
10701;SDS011;5402;50.004;8.246;2022-08-21T12:00:22;4.35;;;2.65;;
10701;SDS011;5402;50.004;8.246;2022-08-21T12:02:53;2.80;;;2.20;;
10701;SDS011;5402;50.004;8.246;2022-08-21T12:05:23;3.53;;;2.30;;
10701;SDS011;5402;50.004;8.246;2022-08-21T12:10:39;4.95;;;2.72;;
10701;SDS011;5402;50.004;8.246;2022-08-21T12:13:11;2.75;;;2.20;;
10701;SDS011;5402;50.004;8.246;2022-08-21T12:15:50;6.22;;;2.60;;
10701;SDS011;5402;50.004;8.246;2022-08-21T12:18:23;3.40;;;2.42;;
10701;SDS011;5402;50.004;8.246;2022-08-21T12:20:57;3.35;;;2.40;;
10701;SDS011;5402;50.004;8.246;2022-08-21T12:23:30;4.22;;;2.58;;
10701;SDS011;5402;50.004;8.246;2022-08-21T12:25:59;3.53;;;2.42;;
10701;SDS011;5402;50.004;8.246;2022-08-21T12:28:40;3.83;;;2.40;;
10701;SDS011;5402;50.004;8.246;2022-08-21T12:31:16;4.32;;;2.35;;
10701;SDS011;5402;50.004;8.246;2022-08-21T12:33:49;4.18;;;2.45;;
10701;SDS011;5402;50.004;8.246;2022-08-21T12:36:20;4.18;;;2.17;;
10701;SDS011;5402;50.004;8.246;2022-08-21T12:38:54;4.63;;;2.25;;
10701;SDS011;5402;50.004;8.246;2022-08-21T12:41:25;5.97;;;2.75;;
10701;SDS011;5402;50.004;8.246;2022-08-21T12:43:57;5.25;;;2.58;;
10701;SDS011;5402;50.004;8.246;2022-08-21T12:46:32;3.30;;;2.28;;
10701;SDS011;5402;50.004;8.246;2022-08-21T12:49:03;3.80;;;2.47;;
10701;SDS011;5402;50.004;8.246;2022-08-21T12:51:40;4.43;;;2.40;;
10701;SDS011;5402;50.004;8.246;2022-08-21T12:54:23;5.70;;;2.58;;
10701;SDS011;5402;50.004;8.246;2022-08-21T12:56:58;3.05;;;2.03;;
10701;SDS011;5402;50.004;8.246;2022-08-21T12:59:26;3.35;;;2.55;;
10701;SDS011;5402;50.004;8.246;2022-08-21T13:01:54;5.78;;;2.63;;
10701;SDS011;5402;50.004;8.246;2022-08-21T13:04:24;5.65;;;2.28;;
10701;SDS011;5402;50.004;8.246;2022-08-21T13:06:58;3.17;;;2.38;;
10701;SDS011;5402;50.004;8.246;2022-08-21T13:09:28;2.65;;;2.10;;
10701;SDS011;5402;50.004;8.246;2022-08-21T13:11:56;2.85;;;2.22;;
10701;SDS011;5402;50.004;8.246;2022-08-21T13:14:25;4.82;;;2.30;;
10701;SDS011;5402;50.004;8.246;2022-08-21T13:16:56;4.90;;;2.55;;
10701;SDS011;5402;50.004;8.246;2022-08-21T13:19:25;5.18;;;2.53;;
10701;SDS011;5402;50.004;8.246;2022-08-21T13:21:53;3.47;;;2.00;;
10701;SDS011;5402;50.004;8.246;2022-08-21T13:24:21;3.72;;;2.30;;
10701;SDS011;5402;50.004;8.246;2022-08-21T13:26:50;4.10;;;2.05;;
10701;SDS011;5402;50.004;8.246;2022-08-21T13:29:19;3.58;;;2.50;;
10701;SDS011;5402;50.004;8.246;2022-08-21T13:31:48;3.85;;;2.40;;
10701;SDS011;5402;50.004;8.246;2022-08-21T13:34:17;3.50;;;2.30;;
10701;SDS011;5402;50.004;8.246;2022-08-21T13:36:45;4.20;;;2.17;;
10701;SDS011;5402;50.004;8.246;2022-08-21T13:39:14;4.03;;;2.10;;
10701;SDS011;5402;50.004;8.246;2022-08-21T13:41:44;3.05;;;2.05;;
10701;SDS011;5402;50.004;8.246;2022-08-21T13:44:17;3.15;;;2.17;;
10701;SDS011;5402;50.004;8.246;2022-08-21T13:46:45;2.65;;;2.00;;
10701;SDS011;5402;50.004;8.246;2022-08-21T13:49:13;3.50;;;2.17;;
10701;SDS011;5402;50.004;8.246;2022-08-21T13:51:42;4.70;;;2.33;;
10701;SDS011;5402;50.004;8.246;2022-08-21T13:54:21;3.67;;;2.50;;
10701;SDS011;5402;50.004;8.246;2022-08-21T13:56:51;4.28;;;2.53;;
10701;SDS011;5402;50.004;8.246;2022-08-21T13:59:26;2.85;;;2.15;;
10701;SDS011;5402;50.004;8.246;2022-08-21T14:01:56;3.60;;;2.05;;
10701;SDS011;5402;50.004;8.246;2022-08-21T14:04:26;4.60;;;2.40;;
10701;SDS011;5402;50.004;8.246;2022-08-21T14:06:58;2.63;;;2.00;;
10701;SDS011;5402;50.004;8.246;2022-08-21T14:09:26;3.72;;;2.13;;
10701;SDS011;5402;50.004;8.246;2022-08-21T14:11:56;5.95;;;2.22;;
10701;SDS011;5402;50.004;8.246;2022-08-21T14:14:28;5.43;;;2.20;;
10701;SDS011;5402;50.004;8.246;2022-08-21T14:16:58;3.70;;;2.35;;
10701;SDS011;5402;50.004;8.246;2022-08-21T14:19:27;2.95;;;2.10;;
10701;SDS011;5402;50.004;8.246;2022-08-21T14:24:58;4.35;;;2.33;;
10701;SDS011;5402;50.004;8.246;2022-08-21T14:27:28;6.13;;;2.30;;
10701;SDS011;5402;50.004;8.246;2022-08-21T14:29:59;3.78;;;1.95;;
10701;SDS011;5402;50.004;8.246;2022-08-21T14:32:28;3.80;;;2.50;;
10701;SDS011;5402;50.004;8.246;2022-08-21T14:34:56;3.08;;;2.30;;
10701;SDS011;5402;50.004;8.246;2022-08-21T14:37:23;2.83;;;2.00;;
10701;SDS011;5402;50.004;8.246;2022-08-21T14:39:50;3.00;;;1.95;;
10701;SDS011;5402;50.004;8.246;2022-08-21T14:42:17;2.65;;;2.17;;
10701;SDS011;5402;50.004;8.246;2022-08-21T14:44:44;4.85;;;2.30;;
10701;SDS011;5402;50.004;8.246;2022-08-21T14:47:12;3.03;;;2.03;;
10701;SDS011;5402;50.004;8.246;2022-08-21T14:49:39;2.67;;;2.33;;
10701;SDS011;5402;50.004;8.246;2022-08-21T14:52:06;3.10;;;1.92;;
10701;SDS011;5402;50.004;8.246;2022-08-21T14:54:33;3.88;;;2.38;;
10701;SDS011;5402;50.004;8.246;2022-08-21T14:57:01;2.60;;;1.83;;
10701;SDS011;5402;50.004;8.246;2022-08-21T14:59:31;4.05;;;2.13;;
10701;SDS011;5402;50.004;8.246;2022-08-21T15:01:58;3.92;;;2.25;;
10701;SDS011;5402;50.004;8.246;2022-08-21T15:04:26;2.85;;;2.00;;
10701;SDS011;5402;50.004;8.246;2022-08-21T15:06:53;4.88;;;2.13;;
10701;SDS011;5402;50.004;8.246;2022-08-21T15:09:20;3.65;;;1.77;;
10701;SDS011;5402;50.004;8.246;2022-08-21T15:11:47;2.72;;;1.85;;
10701;SDS011;5402;50.004;8.246;2022-08-21T15:14:15;3.28;;;2.17;;
10701;SDS011;5402;50.004;8.246;2022-08-21T15:16:46;2.33;;;1.77;;
10701;SDS011;5402;50.004;8.246;2022-08-21T15:19:20;3.35;;;2.18;;
10701;SDS011;5402;50.004;8.246;2022-08-21T15:21:48;3.75;;;2.20;;